Hauptseite
METAR-TAF:

METAR-TAF

Flughäfen :

Tateyama Kōkū Kichi

Tateyama, Japan

Breite: 34-59N, Länge: 139-50E, Höhe: 3 m

Beobachtung

Neuester Wetterbericht von vor 3 Stunden und 59 Minuten, um 10:46 UTC
Wind 10 kt aus Ost/Nordost
Temperatur 17°C
Luftfeuchtigkeit 82%
Luftdruck 1017 hPa
Sichtweite 10 km oder mehr
Durchbrochene Bewölkung in der Höhe von 2000 ft
Durchbrochene Bewölkung in der Höhe von 4000 ft
Leichtregen

METAR: RJTE 231046Z 07010KT 9999 -RA BKN020 BKN040 17/14 Q1017 RMK 5CU020 7SC040 A3005

Zeit: 23:45 (14:45 UTC)


TAF: fehlend

Wetterbeobachtungen und Prognosen von mehr als 4000 Flughäfen (METAR und TAF Bericht).

Die verfügbaren Stationen werden durch gelbe und rote Markierungen auf der Karte dargestellt.

Führen Sie die Maus auf sie, um den Namen der Station zu sehen.

Darauf klicken, um die Beobachtung von Wetterbeobachtungen und Prognosen zu sehen.

Um die Karte zu ändern : klicken Sie auf den grünen Tasten mit einem schwarzen Kreuz Zum Vergrößern, auf den grünen Button mit einem Gedankenstrich zu verkleinern, oder auf die grünen Pfeile für benachbarte Karten.


METAR-TAF: